createdAt,value
2019-04-06T00:00:51.336Z,29.2
2019-04-06T00:05:51.292Z,29.2
2019-04-06T00:10:51.320Z,29.3
2019-04-06T00:15:51.267Z,29.3
2019-04-06T00:20:51.316Z,29.3
2019-04-06T00:25:51.245Z,29.4
2019-04-06T00:30:51.301Z,29.5
2019-04-06T00:44:17.151Z,29.6
2019-04-06T00:49:17.150Z,29.6
2019-04-06T00:54:17.427Z,30
2019-04-06T00:59:17.115Z,30.4
2019-04-06T01:04:17.144Z,30.8
2019-04-06T01:09:17.169Z,31
2019-04-06T01:14:17.213Z,30.7
2019-04-06T01:19:17.149Z,31.1
2019-04-06T01:24:17.077Z,30.5
2019-04-06T01:29:17.111Z,30.5
2019-04-06T01:34:17.122Z,30.6
2019-04-06T01:39:17.085Z,30.6
2019-04-06T01:44:17.096Z,30.6
2019-04-06T01:49:17.082Z,30.6
2019-04-06T01:54:17.079Z,30.7
2019-04-06T01:59:17.052Z,30.7
2019-04-06T02:04:17.094Z,30.9
2019-04-06T02:09:17.087Z,30.8
2019-04-06T02:14:17.057Z,31.1
2019-04-06T02:19:17.058Z,31.1
2019-04-06T02:24:17.067Z,31.1
2019-04-06T02:29:17.111Z,31.2
2019-04-06T02:34:27.634Z,31.2
2019-04-06T02:39:17.171Z,31.7
2019-04-06T02:44:17.248Z,32.4
2019-04-06T02:49:17.026Z,32.7
2019-04-06T02:54:17.046Z,33
2019-04-06T02:59:17.028Z,32.8
2019-04-06T03:04:17.002Z,32.5
2019-04-06T03:09:17.079Z,32.4
2019-04-06T03:14:17.176Z,32.3
2019-04-06T03:19:16.994Z,32.3
2019-04-06T03:24:17.264Z,32.3
2019-04-06T03:29:17.031Z,32.4
2019-04-06T03:34:23.404Z,32.4
2019-04-06T03:39:17.152Z,32.4
2019-04-06T03:44:16.992Z,32.5
2019-04-06T03:49:17.025Z,32.5
2019-04-06T03:54:16.963Z,32.5
2019-04-06T03:59:16.944Z,32.5
2019-04-06T04:04:16.999Z,32.5
2019-04-06T04:09:16.910Z,32.5
2019-04-06T04:14:16.937Z,32.6
2019-04-06T04:19:16.920Z,32.6
2019-04-06T04:24:16.922Z,33.3
2019-04-06T04:29:17.012Z,33.6
2019-04-06T04:34:17.021Z,33.9
2019-04-06T04:39:16.895Z,33.9
2019-04-06T04:44:16.976Z,33.4
2019-04-06T04:49:16.912Z,33.1
2019-04-06T04:54:16.881Z,33
2019-04-06T04:59:16.887Z,32.9
2019-04-06T05:04:16.873Z,32.8
2019-04-06T05:09:16.862Z,32.7
2019-04-06T05:14:16.974Z,32.8
2019-04-06T05:19:16.873Z,32.8
2019-04-06T05:24:16.839Z,32.6
2019-04-06T05:29:16.871Z,32.7
2019-04-06T05:34:17.003Z,32.6
2019-04-06T05:39:18.677Z,32.6
2019-04-06T05:44:16.885Z,32.6
2019-04-06T05:49:16.874Z,32.6
2019-04-06T05:54:16.851Z,32.3
2019-04-06T05:59:16.848Z,32.3
2019-04-06T06:04:16.810Z,32.4
2019-04-06T06:09:16.811Z,32.4
2019-04-06T06:14:16.858Z,32.3
2019-04-06T06:19:16.812Z,32.4
2019-04-06T06:24:16.836Z,32.1
2019-04-06T06:29:16.977Z,31.9
2019-04-06T06:34:16.757Z,31.9
2019-04-06T06:39:16.756Z,31.9
2019-04-06T06:44:16.810Z,31.7
2019-04-06T06:49:16.800Z,31.5
2019-04-06T06:54:16.769Z,31.4
2019-04-06T06:59:16.792Z,31.3
2019-04-06T07:04:16.733Z,31.4
2019-04-06T07:09:16.747Z,31.4
2019-04-06T07:14:17.413Z,31.4
2019-04-06T07:19:16.759Z,31.2
2019-04-06T07:24:16.752Z,31.1
2019-04-06T07:29:17.030Z,31
2019-04-06T07:34:16.729Z,31.2
2019-04-06T07:39:16.949Z,31.2
2019-04-06T07:44:16.729Z,31
2019-04-06T07:49:17.081Z,31
2019-04-06T07:54:16.672Z,30.9
2019-04-06T07:59:16.954Z,30.9
2019-04-06T08:04:16.904Z,30.3
2019-04-06T08:09:16.901Z,30.9
2019-04-06T08:14:16.716Z,30.9
2019-04-06T08:19:16.644Z,30.9
2019-04-06T08:24:16.706Z,30.9
2019-04-06T08:29:16.957Z,31.3
2019-04-06T08:34:16.893Z,30.7
2019-04-06T08:39:16.916Z,30.7
2019-04-06T08:44:16.894Z,30.7
2019-04-06T08:49:16.883Z,30.6
2019-04-06T08:54:16.656Z,30.6
2019-04-06T08:59:16.655Z,30.7
2019-04-06T09:04:16.800Z,30.5
2019-04-06T09:09:16.628Z,30.5
2019-04-06T09:14:16.635Z,30.3
2019-04-06T09:19:16.617Z,30.3
2019-04-06T09:24:16.786Z,30
2019-04-06T09:29:25.192Z,30
2019-04-06T09:34:16.588Z,29.6
2019-04-06T09:39:17.917Z,29.6
2019-04-06T09:44:16.633Z,29.6
2019-04-06T09:49:16.593Z,29.6
2019-04-06T09:54:16.606Z,29.6
2019-04-06T09:59:16.565Z,29.3
2019-04-06T10:04:16.658Z,28.5
2019-04-06T10:09:16.551Z,37.7
2019-04-06T10:14:16.592Z,32.1
2019-04-06T10:19:16.599Z,30.7
2019-04-06T10:24:16.599Z,29.3
2019-04-06T10:29:16.542Z,29.2
2019-04-06T10:34:16.598Z,27.8
2019-04-06T10:39:16.541Z,27.4
2019-04-06T10:44:16.514Z,27
2019-04-06T10:49:16.541Z,26.8
2019-04-06T11:11:28.403Z,31
2019-04-06T11:16:28.244Z,30.2
2019-04-06T11:21:28.254Z,29.7
2019-04-06T11:26:28.214Z,29.4
2019-04-06T11:31:28.219Z,28.6
2019-04-06T11:36:28.499Z,28.2
2019-04-06T11:41:28.219Z,29.8
2019-04-06T11:46:28.248Z,32.6
2019-04-06T11:51:28.210Z,31.7
2019-04-06T11:56:28.199Z,30.4
2019-04-06T12:01:28.196Z,32.9
2019-04-06T12:06:28.226Z,28.5
2019-04-06T12:11:28.256Z,28.4
2019-04-06T12:16:28.206Z,28.1
2019-04-06T12:21:28.393Z,27.3
2019-04-06T12:26:28.157Z,28.2
2019-04-06T12:31:28.160Z,32.7
2019-04-06T12:36:28.880Z,34.7
2019-04-06T12:41:28.314Z,36.4
2019-04-06T12:46:28.225Z,33.6
2019-04-06T12:51:28.592Z,37
2019-04-06T12:56:28.137Z,37.9
2019-04-06T13:01:28.152Z,35.4
2019-04-06T13:06:28.112Z,34.7
2019-04-06T13:11:28.331Z,34.7
2019-04-06T13:16:28.278Z,36.9
2019-04-06T13:21:28.162Z,37.7
2019-04-06T13:26:28.151Z,37.6
2019-04-06T13:31:28.095Z,37.4
2019-04-06T13:36:28.326Z,37.1
2019-04-06T13:41:28.148Z,37.2
2019-04-06T13:46:28.327Z,37.7
2019-04-06T13:51:28.084Z,38.4
2019-04-06T13:56:28.136Z,39.2
2019-04-06T14:06:28.086Z,40.5
2019-04-06T14:11:42.454Z,41.5
2019-04-06T14:16:42.478Z,42
2019-04-06T14:21:42.451Z,41.7
2019-04-06T14:26:42.440Z,42.3
2019-04-06T14:31:42.393Z,42.2
2019-04-06T14:36:42.786Z,42
2019-04-06T14:41:42.454Z,43.6
2019-04-06T16:25:36.535Z,45.5
2019-04-06T16:30:36.934Z,46.1
2019-04-06T16:35:36.467Z,48.6
2019-04-06T16:40:36.508Z,48.9
2019-04-06T16:45:36.906Z,50.2
2019-04-06T16:50:36.436Z,49.4
2019-04-06T16:55:36.476Z,50.1
2019-04-06T17:00:36.809Z,50.6
2019-04-06T17:05:36.447Z,51.3
2019-04-06T17:10:37.206Z,51.4
2019-04-06T17:15:36.568Z,51.5
2019-04-06T17:20:36.933Z,51.3
2019-04-06T17:25:36.420Z,51.8
2019-04-06T17:30:36.419Z,51.7
2019-04-06T17:35:36.556Z,51.7
2019-04-06T17:40:36.502Z,49.4
2019-04-06T17:45:36.398Z,45.5
2019-04-06T17:50:36.620Z,44.7
2019-04-06T17:55:36.379Z,46.9
2019-04-06T18:00:36.405Z,47.4
2019-04-06T18:05:36.358Z,48.2
2019-04-06T18:10:36.972Z,48.4
2019-04-06T18:15:36.933Z,48.6
2019-04-06T18:20:36.482Z,49
2019-04-06T18:25:36.340Z,48.8
2019-04-06T18:30:36.376Z,49.1
2019-04-06T18:35:36.362Z,49.1
2019-04-06T18:40:36.347Z,49.3
2019-04-06T18:45:36.339Z,49.8
2019-04-06T18:50:39.285Z,49.4
2019-04-06T19:02:36.108Z,48.8
2019-04-06T19:07:35.504Z,49.1
2019-04-06T19:12:35.463Z,48.6
2019-04-06T19:17:35.456Z,48.7
2019-04-06T19:22:35.376Z,48.2
2019-04-06T19:27:35.480Z,48.1
2019-04-06T19:32:35.630Z,48
2019-04-06T19:37:35.356Z,45.5
2019-04-06T19:42:35.357Z,42.1
2019-04-06T19:47:35.996Z,41.2
2019-04-06T19:52:35.992Z,43
2019-04-06T19:57:35.343Z,43.9
2019-04-06T20:02:35.413Z,44.7
2019-04-06T20:07:35.674Z,44.7
2019-04-06T20:12:36.270Z,45.2
2019-04-06T20:17:35.657Z,45.3
2019-04-06T20:22:35.459Z,45.3
2019-04-06T20:27:35.476Z,45.5
2019-04-06T20:32:35.756Z,45.6
2019-04-06T20:37:36.005Z,45.5
2019-04-06T20:42:35.822Z,43.2
2019-04-06T20:47:35.466Z,40.1
2019-04-06T20:52:35.259Z,38.8
2019-04-06T20:57:35.301Z,38.6
2019-04-06T21:02:35.304Z,37.8
2019-04-06T21:07:35.376Z,38.7
2019-04-06T21:12:35.350Z,39.9
2019-04-06T21:17:37.190Z,38.5
2019-04-06T21:22:35.365Z,36.4
2019-04-06T21:27:35.329Z,36.3
2019-04-06T21:32:35.284Z,35.5
2019-04-06T21:37:36.009Z,35.4
2019-04-06T21:42:35.767Z,36
2019-04-06T21:47:35.486Z,36.8
2019-04-06T21:52:35.417Z,38.1
2019-04-06T21:57:35.699Z,38.5
2019-04-06T22:02:35.627Z,38.8
2019-04-06T22:07:54.871Z,39
2019-04-06T22:12:35.232Z,39.3
2019-04-06T22:17:36.105Z,39.4
2019-04-06T22:22:35.694Z,39.5
2019-04-06T22:27:35.223Z,39.5
2019-04-06T22:32:35.806Z,39.5
2019-04-06T22:37:35.789Z,39.8
2019-04-06T22:42:35.428Z,39.7
2019-04-06T22:47:35.179Z,39.7
2019-04-06T22:52:35.472Z,40
2019-04-06T22:57:35.174Z,40
2019-04-06T23:02:35.160Z,39.8
2019-04-06T23:07:35.156Z,39.8
2019-04-06T23:12:35.173Z,39.8
2019-04-06T23:17:35.144Z,39.7
2019-04-06T23:22:35.637Z,39.2
2019-04-06T23:27:35.493Z,39.6
2019-04-06T23:32:35.167Z,39.6
2019-04-06T23:37:35.640Z,39.4
2019-04-06T23:42:35.519Z,39.5
2019-04-06T23:47:35.285Z,39.4
2019-04-06T23:52:35.582Z,39.6
2019-04-06T23:57:35.151Z,39.5
